Create Tblcommutelog Verified Points Advance Search
| # | Trip ID | Id Commuter | Trip Date | Trip Num | Current Lat | Current Lng | Delta Distance | Current Time | Activity | Activity Confidence | Current Speed | |
|---|---|---|---|---|---|---|---|---|---|---|---|---|
| 73361 | 250904_784261_16418565_0632 | 784261 | (not set) | (not set) | 38.7740921 | -77.2488173 | 0 | 2025-09-04 06:32:11 | in_vehicle | 100 | 4.4390998417481 | |
| 73362 | 250904_784261_16418565_0632 | 784261 | (not set) | (not set) | 38.7740921 | -77.2488173 | 0 | 2025-09-04 06:32:11 | in_vehicle | 100 | 4.4390998417481 | |
| 73363 | 250904_784261_16418565_0632 | 784261 | (not set) | (not set) | 38.7740921 | -77.2488173 | 0 | 2025-09-04 06:32:11 | in_vehicle | 100 | 4.4390998417481 | |
| 73364 | 250904_755334_16501377_0632 | 755334 | (not set) | (not set) | 38.9516719 | -77.383757 | 0 | 2025-09-04 06:32:13 | still | 100 | 0.97901597718312 | |
| 73365 | 250904_755334_16501377_0632 | 755334 | (not set) | (not set) | 38.9516719 | -77.383757 | 0 | 2025-09-04 06:32:13 | still | 100 | 0.97901597718312 | |
| 73366 | 250904_755334_16501377_0632 | 755334 | (not set) | (not set) | 38.9516719 | -77.383757 | 0 | 2025-09-04 06:32:13 | walking | 100 | 0.97901597718312 | |
| 73367 | 250904_781350_16450333_0631 | 781350 | (not set) | (not set) | 38.948130722555 | -76.872233245781 | 0 | 2025-09-04 06:32:13 | still | 33 | -0.44703925898772 | |
| 73368 | 250904_781350_16450333_0631 | 781350 | (not set) | (not set) | 38.948130722555 | -76.872233245781 | 0 | 2025-09-04 06:32:13 | still | 33 | -0.44703925898772 | |
| 73369 | 250904_781350_16450333_0631 | 781350 | (not set) | (not set) | 38.919452570792 | -76.913560989831 | 0 | 2025-09-04 06:32:13 | still | 33 | -0.44703925898772 | |
| 73370 | 250904_755334_16501377_0632 | 755334 | (not set) | (not set) | 38.9516641 | -77.3837646 | 0 | 2025-09-04 06:32:14 | walking | 100 | 0.78231870322852 | |
| 73371 | 250904_781350_16450333_0632 | 781350 | (not set) | (not set) | 38.948130722555 | -76.872233245781 | 0 | 2025-09-04 06:32:14 | still | 33 | -0.44703925898772 | |
| 73372 | 250904_781350_16450333_0631 | 781350 | (not set) | (not set) | 38.948130722555 | -76.872233245781 | 0 | 2025-09-04 06:32:14 | still | 33 | -0.44703925898772 | |
| 73373 | 250904_781350_16450333_0631 | 781350 | (not set) | (not set) | 38.948130722555 | -76.872233245781 | 0 | 2025-09-04 06:32:13 | still | 33 | -0.44703925898772 | |
| 73374 | 250904_781350_16450333_0632 | 781350 | (not set) | (not set) | 38.917360536785 | -76.917593131869 | 0 | 2025-09-04 06:32:14 | still | 33 | -0.44703925898772 | |
| 73375 | 250904_755334_16501377_0632 | 755334 | (not set) | (not set) | 38.9516514 | -77.3837494 | 0 | 2025-09-04 06:32:15 | walking | 100 | 0.59903260704355 | |
| 73376 | 250904_755334_16501377_0632 | 755334 | (not set) | (not set) | 38.9516514 | -77.3837494 | 0 | 2025-09-04 06:32:15 | walking | 100 | 0.59903260704355 | |
| 73377 | 250904_788527_16511854_0617 | 788527 | (not set) | (not set) | 39.161003315468 | -76.697452159456 | 9.9276 | 2025-09-04 06:32:15 | in_vehicle | 100 | 12.883671444026 | |
| 73378 | 250904_781350_16450333_0631 | 781350 | (not set) | (not set) | 38.917360536785 | -76.917593131869 | 0 | 2025-09-04 06:32:14 | still | 33 | -0.44703925898772 | |
| 73379 | 250904_784261_16418565_0632 | 784261 | (not set) | (not set) | 38.7740921 | -77.2488173 | 0 | 2025-09-04 06:32:16 | in_vehicle | 100 | 4.4390998417481 | |
| 73380 | 250904_784261_16418565_0632 | 784261 | (not set) | (not set) | 38.7740921 | -77.2488173 | 0 | 2025-09-04 06:32:16 | in_vehicle | 100 | 4.4390998417481 |